Milouin — FT9009 — position and weather

sailwx.info

Track history (hours):
 
Tides and Currents Weather Stations Pressure Air Temp Water Temp Dewpoint Dewpoint Depression Visibility Wind Speed Wind Dir Waves Ship Positions

Milouin

Last reported at 2018-Jan-19 15:26 UTC. Time now 2018-Jan-19 15:48 UTC.
Position N 47°17' W 002°01'.

Length 36 m; draft 2.5 m.

Type: Ship. MMSI: 227003190.

Date/timePositionNaut miles runAvg speedWind from/ knotsBaromVisibWave heightAir tempDewpointWater temp
2018-Jan-19 15:26N 47°17' W 002°01'0 0.0
2018-Jan-19 14:59N 47°17' W 002°01'0 0.0
2018-Jan-19 14:29N 47°17' W 002°01'0 0.0
2018-Jan-19 13:59N 47°17' W 002°01'0 0.1
2018-Jan-19 13:26N 47°17' W 002°01'0 0.0
2018-Jan-19 12:56N 47°17' W 002°01'0 0.0
2018-Jan-19 12:29N 47°17' W 002°01'3 5.8
2018-Jan-19 12:00N 47°18' W 002°05'1 1.2
2018-Jan-19 11:30N 47°18' W 002°06'0 0.3
2018-Jan-19 10:59N 47°18' W 002°06'0 0.0
2018-Jan-19 10:30N 47°18' W 002°06'0 0.2
2018-Jan-19 10:00N 47°18' W 002°06'1 1.3
2018-Jan-19 09:30N 47°18' W 002°05'0 0.2
2018-Jan-19 08:59N 47°18' W 002°05'0 0.6
2018-Jan-19 08:29N 47°18' W 002°05'0 0.0
2018-Jan-19 07:56N 47°18' W 002°05'0 0.0
2018-Jan-19 07:29N 47°18' W 002°05'0 0.5
2018-Jan-19 06:58N 47°18' W 002°05'0 0.1
2018-Jan-19 06:30N 47°18' W 002°05'3 5.9
2018-Jan-19 05:59N 47°17' W 002°01'0 0.0
2018-Jan-19 05:26N 47°17' W 002°01'0 0.0
2018-Jan-19 04:53N 47°17' W 002°01'0 0.0
2018-Jan-19 04:29N 47°17' W 002°01'0 0.0
2018-Jan-19 03:59N 47°17' W 002°01'0 0.0
2018-Jan-19 03:29N 47°17' W 002°01'0 0.0
2018-Jan-19 02:59N 47°17' W 002°01'0 0.0
2018-Jan-19 02:26N 47°17' W 002°01'0 0.0
2018-Jan-19 01:59N 47°17' W 002°01'0 0.0
2018-Jan-19 01:29N 47°17' W 002°01'0 0.0
2018-Jan-19 00:59N 47°17' W 002°01'0 0.0
2018-Jan-19 00:29N 47°17' W 002°01'0 0.0
2018-Jan-18 23:59N 47°17' W 002°01'0 0.0
2018-Jan-18 23:29N 47°17' W 002°01'0 0.0
2018-Jan-18 22:59N 47°17' W 002°01'0 0.0
2018-Jan-18 22:29N 47°17' W 002°01'0 0.0
2018-Jan-18 21:59N 47°17' W 002°01'0 0.0
2018-Jan-18 21:29N 47°17' W 002°01'0 0.0
2018-Jan-18 20:56N 47°17' W 002°01'0 0.0
2018-Jan-18 20:26N 47°17' W 002°01'0 0.0
2018-Jan-18 19:59N 47°17' W 002°01'0 0.0
2018-Jan-18 19:29N 47°17' W 002°01'0 0.0
2018-Jan-18 18:59N 47°17' W 002°01'0 0.0
2018-Jan-18 17:20N 47°17' W 002°01'0 0.0
2018-Jan-18 16:59N 47°17' W 002°01'0 0.0
2018-Jan-18 16:29N 47°17' W 002°01'0 0.0
2018-Jan-18 15:59N 47°17' W 002°01'0 0.0
2018-Jan-18 15:29N 47°17' W 002°01'0 0.0
2018-Jan-18 14:56N 47°17' W 002°01'0 0.0
2018-Jan-18 14:26N 47°17' W 002°01'0 0.0
2018-Jan-18 13:59N 47°17' W 002°01'0 0.0
2018-Jan-18 13:17N 47°17' W 002°01'0 0.0
2018-Jan-18 12:59N 47°17' W 002°01'0 0.0
2018-Jan-18 12:14N 47°17' W 002°01'0 1.0
2018-Jan-18 12:00N 47°17' W 002°01'2 4.1
2018-Jan-18 11:30N 47°18' W 002°04'1 3.0
2018-Jan-18 11:00N 47°18' W 002°06'0 0.0
2018-Jan-18 10:26N 47°18' W 002°06'0 0.1
2018-Jan-18 09:59N 47°18' W 002°07'0 0.0
2018-Jan-18 09:29N 47°18' W 002°07'0 0.0
2018-Jan-18 08:58N 47°18' W 002°07'0 0.1
2018-Jan-18 08:28N 47°18' W 002°07'0 0.0
2018-Jan-18 07:56N 47°18' W 002°06'1 2.1
2018-Jan-18 07:30N 47°18' W 002°05'510.0
2018-Jan-18 07:00N 47°17' W 001°58'5 9.9
2018-Jan-18 06:30N 47°16' W 001°51'5 7.2
2018-Jan-18 05:50N 47°12' W 001°46'0 0.0
2018-Jan-18 05:29N 47°12' W 001°46'0 0.0
2018-Jan-18 04:59N 47°12' W 001°46'0 0.0
2018-Jan-18 04:23N 47°12' W 001°46'0 0.0
2018-Jan-18 03:56N 47°12' W 001°46'0 0.0
2018-Jan-18 03:26N 47°12' W 001°46'0 0.0
2018-Jan-18 02:59N 47°12' W 001°46'0 0.0
2018-Jan-18 02:29N 47°12' W 001°46'0 0.0
2018-Jan-18 01:59N 47°12' W 001°46'0 0.0
2018-Jan-18 01:29N 47°12' W 001°46'0 0.0
2018-Jan-18 00:56N 47°12' W 001°46'0 0.0
2018-Jan-17 23:59N 47°12' W 001°46'0 0.0
2018-Jan-17 23:53N 47°12' W 001°46'  
2018-Jan-12 14:52N 47°18' W 002°04'0 0.0
2018-Jan-12 14:28N 47°18' W 002°04'0 0.1
2018-Jan-12 13:55N 47°18' W 002°04'0 0.0
2018-Jan-12 13:29N 47°18' W 002°04'2 2.4
2018-Jan-12 12:36N 47°17' W 002°01'0 0.0
2018-Jan-12 12:24N 47°17' W 002°01'0 0.0
2018-Jan-12 11:39N 47°17' W 002°01'0 0.0
2018-Jan-12 11:21N 47°17' W 002°01'0 0.0
2018-Jan-12 11:00N 47°17' W 002°01'0 0.0
2018-Jan-12 10:24N 47°17' W 002°01'0 0.0
2018-Jan-12 09:57N 47°17' W 002°01'0 0.0
2018-Jan-12 09:30N 47°17' W 002°01'0 0.0
2018-Jan-12 08:57N 47°17' W 002°01'0 0.0
2018-Jan-12 08:15N 47°17' W 002°01'0 0.0
2018-Jan-12 06:24N 47°17' W 002°01'0 0.0
2018-Jan-12 05:57N 47°17' W 002°01'0 0.0
2018-Jan-12 05:27N 47°17' W 002°01'0 0.0
2018-Jan-12 05:00N 47°17' W 002°01'0 0.0
2018-Jan-12 04:00N 47°17' W 002°01'0 0.0
2018-Jan-12 03:30N 47°17' W 002°01'0 0.0
2018-Jan-12 03:00N 47°17' W 002°01'0 0.0
2018-Jan-12 02:09N 47°17' W 002°01'0 0.0
2018-Jan-12 01:57N 47°17' W 002°01'0 0.0
2018-Jan-12 01:30N 47°17' W 002°01'0 0.0
2018-Jan-12 00:51N 47°17' W 002°01'0 0.0
2018-Jan-12 00:30N 47°17' W 002°01'0 0.0
2018-Jan-12 00:00N 47°17' W 002°01'0 0.0
2018-Jan-11 23:27N 47°17' W 002°01'0 0.0
2018-Jan-11 22:57N 47°17' W 002°01'0 0.0
2018-Jan-11 22:30N 47°17' W 002°01'0 0.0
2018-Jan-11 22:00N 47°17' W 002°01'0 0.0
2018-Jan-11 21:30N 47°17' W 002°01'0 0.0
2018-Jan-11 21:00N 47°17' W 002°01'0 0.0
2018-Jan-11 20:30N 47°17' W 002°01'0 0.0
2018-Jan-11 19:57N 47°17' W 002°01'0 0.0
2018-Jan-11 17:59N 47°17' W 002°01'0 0.0
2018-Jan-11 17:27N 47°17' W 002°01'0 0.0
2018-Jan-11 17:00N 47°17' W 002°01'2 4.6
2018-Jan-11 16:30N 47°18' W 002°04'2 3.4
2018-Jan-11 16:00N 47°18' W 002°07'0 0.3
2018-Jan-11 15:29N 47°18' W 002°07'0 0.2
2018-Jan-11 14:56N 47°18' W 002°07'0 0.1
2018-Jan-11 13:53N 47°18' W 002°07'0 0.1
2018-Jan-11 13:17N 47°18' W 002°07'0 0.1
2018-Jan-11 12:50N 47°18' W 002°07'0 0.3
2018-Jan-11 12:29N 47°18' W 002°07'0 0.6
2018-Jan-11 11:57N 47°18' W 002°06'0 0.8
2018-Jan-11 11:20N 47°18' W 002°06'0 0.0
2018-Jan-11 10:56N 47°18' W 002°06'2 3.8
2018-Jan-11 10:18N 47°18' W 002°02'1 0.4
2018-Jan-11 08:01N 47°17' W 002°01'0 0.1
2018-Jan-11 07:54N 47°17' W 002°01'0 0.0
2018-Jan-11 07:30N 47°17' W 002°01'0 0.0
2018-Jan-11 06:57N 47°17' W 002°01'0 0.0
2018-Jan-11 06:30N 47°17' W 002°01'0 0.0
2018-Jan-11 04:51N 47°17' W 002°01'0 0.0
2018-Jan-11 04:30N 47°17' W 002°01'0 0.0
2018-Jan-11 03:55N 47°17' W 002°01'0 0.0
2018-Jan-11 03:21N 47°17' W 002°01'0 0.0
2018-Jan-11 02:51N 47°17' W 002°01'0 0.0
2018-Jan-11 02:27N 47°17' W 002°01'0 0.0
2018-Jan-11 02:00N 47°17' W 002°01'0 0.0
2018-Jan-11 01:30N 47°17' W 002°01'0 0.0
2018-Jan-11 00:54N 47°17' W 002°01'0 0.0
2018-Jan-11 00:30N 47°17' W 002°01'0 0.0
2018-Jan-10 23:54N 47°17' W 002°01'0 0.0
2018-Jan-10 23:30N 47°17' W 002°01'0 0.0
2018-Jan-10 22:42N 47°17' W 002°01'0 0.0
2018-Jan-10 22:27N 47°17' W 002°01'0 0.0
2018-Jan-10 21:54N 47°17' W 002°01'0 0.0
2018-Jan-10 21:30N 47°17' W 002°01'0 0.0
2018-Jan-10 21:00N 47°17' W 002°01'0 0.0
2018-Jan-10 20:24N 47°17' W 002°01'0 0.0
2018-Jan-10 20:00N 47°17' W 002°01'0 0.0
2018-Jan-10 19:30N 47°17' W 002°01'0 0.0
2018-Jan-10 19:00N 47°17' W 002°01'0 0.0
2018-Jan-10 18:30N 47°17' W 002°01'0 0.0
2018-Jan-10 18:00N 47°17' W 002°01'0 0.0
2018-Jan-10 17:30N 47°17' W 002°01'0 0.0
2018-Jan-10 17:00N 47°17' W 002°01'0 0.0
2018-Jan-10 16:27N 47°17' W 002°01'0 0.0
2018-Jan-10 16:00N 47°17' W 002°01'0 0.0
2018-Jan-10 15:30N 47°17' W 002°01'2 3.1
2018-Jan-10 15:00N 47°17' W 001°59'3 5.4
2018-Jan-10 14:30N 47°17' W 001°55'2 4.7
2018-Jan-10 14:00N 47°16' W 001°52'2 4.6
2018-Jan-10 13:30N 47°14' W 001°50'2 4.6
2018-Jan-10 13:00N 47°13' W 001°47'1 2.0
2018-Jan-10 12:28N 47°12' W 001°46'0 0.1
2018-Jan-10 11:58N 47°12' W 001°46'0 0.0
2018-Jan-10 11:28N 47°12' W 001°46'0 0.0
2018-Jan-10 10:58N 47°12' W 001°46'0 0.0
2018-Jan-10 10:25N 47°12' W 001°46'0 0.0
2018-Jan-10 09:58N 47°12' W 001°46'0 0.0
2018-Jan-10 09:28N 47°12' W 001°46'0 0.0
2018-Jan-10 08:58N 47°12' W 001°46'0 0.0
2018-Jan-10 08:28N 47°12' W 001°46'0 0.0
2018-Jan-10 07:55N 47°12' W 001°46'0 0.0
2018-Jan-10 07:28N 47°12' W 001°46'0 0.0
2018-Jan-10 06:55N 47°12' W 001°46'0 0.0
2018-Jan-10 06:28N 47°12' W 001°46'0 0.0
2018-Jan-10 05:58N 47°12' W 001°46'0 0.0
2018-Jan-10 05:25N 47°12' W 001°46'0 0.0
2018-Jan-10 04:58N 47°12' W 001°46'0 0.0
2018-Jan-10 04:28N 47°12' W 001°46'0 0.0
2018-Jan-10 03:58N 47°12' W 001°46'0 0.0
2018-Jan-10 03:28N 47°12' W 001°46'0 0.0
2018-Jan-10 02:55N 47°12' W 001°46'0 0.0
2018-Jan-10 02:28N 47°12' W 001°46'0 0.0
2018-Jan-10 01:58N 47°12' W 001°46'0 0.0
2018-Jan-10 01:28N 47°12' W 001°46'0 0.0
2018-Jan-10 00:55N 47°12' W 001°46'0 0.0
2018-Jan-10 00:25N 47°12' W 001°46'0 0.0
2018-Jan-09 23:58N 47°12' W 001°46'0 0.0
2018-Jan-09 23:25N 47°12' W 001°46'0 0.0
2018-Jan-09 22:58N 47°12' W 001°46'0 0.0
2018-Jan-09 22:28N 47°12' W 001°46'0 0.0
2018-Jan-09 21:58N 47°12' W 001°46'0 0.0
2018-Jan-09 21:28N 47°12' W 001°46'0 0.0
2018-Jan-09 20:55N 47°12' W 001°46'0 0.0
2018-Jan-09 20:04N 47°12' W 001°46'0 0.0
2018-Jan-09 19:55N 47°12' W 001°46'0 0.0
2018-Jan-09 19:22N 47°12' W 001°46'0 0.0
2018-Jan-09 18:58N 47°12' W 001°46'0 0.0
2018-Jan-09 18:28N 47°12' W 001°46'0 0.0
2018-Jan-09 17:55N 47°12' W 001°46'0 0.0
2018-Jan-09 17:25N 47°12' W 001°46'0 0.0
2018-Jan-09 16:58N 47°12' W 001°46'0 0.0
2018-Jan-09 16:28N 47°12' W 001°46'0 0.0
2018-Jan-09 15:58N 47°12' W 001°46'0 0.0
2018-Jan-09 15:28N 47°12' W 001°46'  
Track history (hours):
 
Tides and Currents Weather Stations Pressure Air Temp Water Temp Dewpoint Dewpoint Depression Visibility Wind Speed Wind Dir Waves Ship Positions

Milouin

Last reported at 2018-Jan-19 15:26 UTC. Time now 2018-Jan-19 15:48 UTC.
Position N 47°17' W 002°01'.

Length 36 m; draft 2.5 m.

Type: Ship. MMSI: 227003190.

Date/timePositionNaut miles runAvg speedWind from/ knotsBaromVisibWave heightAir tempDewpointWater temp
2018-Jan-19 15:26N 47°17' W 002°01'0 0.0
2018-Jan-19 14:59N 47°17' W 002°01'0 0.0
2018-Jan-19 14:29N 47°17' W 002°01'0 0.0
2018-Jan-19 13:59N 47°17' W 002°01'0 0.1
2018-Jan-19 13:26N 47°17' W 002°01'0 0.0
2018-Jan-19 12:56N 47°17' W 002°01'0 0.0
2018-Jan-19 12:29N 47°17' W 002°01'3 5.8
2018-Jan-19 12:00N 47°18' W 002°05'1 1.2
2018-Jan-19 11:30N 47°18' W 002°06'0 0.3
2018-Jan-19 10:59N 47°18' W 002°06'0 0.0
2018-Jan-19 10:30N 47°18' W 002°06'0 0.2
2018-Jan-19 10:00N 47°18' W 002°06'1 1.3
2018-Jan-19 09:30N 47°18' W 002°05'0 0.2
2018-Jan-19 08:59N 47°18' W 002°05'0 0.6
2018-Jan-19 08:29N 47°18' W 002°05'0 0.0
2018-Jan-19 07:56N 47°18' W 002°05'0 0.0
2018-Jan-19 07:29N 47°18' W 002°05'0 0.5
2018-Jan-19 06:58N 47°18' W 002°05'0 0.1
2018-Jan-19 06:30N 47°18' W 002°05'3 5.9
2018-Jan-19 05:59N 47°17' W 002°01'0 0.0
2018-Jan-19 05:26N 47°17' W 002°01'0 0.0
2018-Jan-19 04:53N 47°17' W 002°01'0 0.0
2018-Jan-19 04:29N 47°17' W 002°01'0 0.0
2018-Jan-19 03:59N 47°17' W 002°01'0 0.0
2018-Jan-19 03:29N 47°17' W 002°01'0 0.0
2018-Jan-19 02:59N 47°17' W 002°01'0 0.0
2018-Jan-19 02:26N 47°17' W 002°01'0 0.0
2018-Jan-19 01:59N 47°17' W 002°01'0 0.0
2018-Jan-19 01:29N 47°17' W 002°01'0 0.0
2018-Jan-19 00:59N 47°17' W 002°01'0 0.0
2018-Jan-19 00:29N 47°17' W 002°01'0 0.0
2018-Jan-18 23:59N 47°17' W 002°01'0 0.0
2018-Jan-18 23:29N 47°17' W 002°01'0 0.0
2018-Jan-18 22:59N 47°17' W 002°01'0 0.0
2018-Jan-18 22:29N 47°17' W 002°01'0 0.0
2018-Jan-18 21:59N 47°17' W 002°01'0 0.0
2018-Jan-18 21:29N 47°17' W 002°01'0 0.0
2018-Jan-18 20:56N 47°17' W 002°01'0 0.0
2018-Jan-18 20:26N 47°17' W 002°01'0 0.0
2018-Jan-18 19:59N 47°17' W 002°01'0 0.0
2018-Jan-18 19:29N 47°17' W 002°01'0 0.0
2018-Jan-18 18:59N 47°17' W 002°01'0 0.0
2018-Jan-18 17:20N 47°17' W 002°01'0 0.0
2018-Jan-18 16:59N 47°17' W 002°01'0 0.0
2018-Jan-18 16:29N 47°17' W 002°01'0 0.0
2018-Jan-18 15:59N 47°17' W 002°01'0 0.0
2018-Jan-18 15:29N 47°17' W 002°01'0 0.0
2018-Jan-18 14:56N 47°17' W 002°01'0 0.0
2018-Jan-18 14:26N 47°17' W 002°01'0 0.0
2018-Jan-18 13:59N 47°17' W 002°01'0 0.0
2018-Jan-18 13:17N 47°17' W 002°01'0 0.0
2018-Jan-18 12:59N 47°17' W 002°01'0 0.0
2018-Jan-18 12:14N 47°17' W 002°01'0 1.0
2018-Jan-18 12:00N 47°17' W 002°01'2 4.1
2018-Jan-18 11:30N 47°18' W 002°04'1 3.0
2018-Jan-18 11:00N 47°18' W 002°06'0 0.0
2018-Jan-18 10:26N 47°18' W 002°06'0 0.1
2018-Jan-18 09:59N 47°18' W 002°07'0 0.0
2018-Jan-18 09:29N 47°18' W 002°07'0 0.0
2018-Jan-18 08:58N 47°18' W 002°07'0 0.1
2018-Jan-18 08:28N 47°18' W 002°07'0 0.0
2018-Jan-18 07:56N 47°18' W 002°06'1 2.1
2018-Jan-18 07:30N 47°18' W 002°05'510.0
2018-Jan-18 07:00N 47°17' W 001°58'5 9.9
2018-Jan-18 06:30N 47°16' W 001°51'5 7.2
2018-Jan-18 05:50N 47°12' W 001°46'0 0.0
2018-Jan-18 05:29N 47°12' W 001°46'0 0.0
2018-Jan-18 04:59N 47°12' W 001°46'0 0.0
2018-Jan-18 04:23N 47°12' W 001°46'0 0.0
2018-Jan-18 03:56N 47°12' W 001°46'0 0.0
2018-Jan-18 03:26N 47°12' W 001°46'0 0.0
2018-Jan-18 02:59N 47°12' W 001°46'0 0.0
2018-Jan-18 02:29N 47°12' W 001°46'0 0.0
2018-Jan-18 01:59N 47°12' W 001°46'0 0.0
2018-Jan-18 01:29N 47°12' W 001°46'0 0.0
2018-Jan-18 00:56N 47°12' W 001°46'0 0.0
2018-Jan-17 23:59N 47°12' W 001°46'0 0.0
2018-Jan-17 23:53N 47°12' W 001°46'  
2018-Jan-12 14:52N 47°18' W 002°04'0 0.0
2018-Jan-12 14:28N 47°18' W 002°04'0 0.1
2018-Jan-12 13:55N 47°18' W 002°04'0 0.0
2018-Jan-12 13:29N 47°18' W 002°04'2 2.4
2018-Jan-12 12:36N 47°17' W 002°01'0 0.0
2018-Jan-12 12:24N 47°17' W 002°01'0 0.0
2018-Jan-12 11:39N 47°17' W 002°01'0 0.0
2018-Jan-12 11:21N 47°17' W 002°01'0 0.0
2018-Jan-12 11:00N 47°17' W 002°01'0 0.0
2018-Jan-12 10:24N 47°17' W 002°01'0 0.0
2018-Jan-12 09:57N 47°17' W 002°01'0 0.0
2018-Jan-12 09:30N 47°17' W 002°01'0 0.0
2018-Jan-12 08:57N 47°17' W 002°01'0 0.0
2018-Jan-12 08:15N 47°17' W 002°01'0 0.0
2018-Jan-12 06:24N 47°17' W 002°01'0 0.0
2018-Jan-12 05:57N 47°17' W 002°01'0 0.0
2018-Jan-12 05:27N 47°17' W 002°01'0 0.0
2018-Jan-12 05:00N 47°17' W 002°01'0 0.0
2018-Jan-12 04:00N 47°17' W 002°01'0 0.0
2018-Jan-12 03:30N 47°17' W 002°01'0 0.0
2018-Jan-12 03:00N 47°17' W 002°01'0 0.0
2018-Jan-12 02:09N 47°17' W 002°01'0 0.0
2018-Jan-12 01:57N 47°17' W 002°01'0 0.0
2018-Jan-12 01:30N 47°17' W 002°01'0 0.0
2018-Jan-12 00:51N 47°17' W 002°01'0 0.0
2018-Jan-12 00:30N 47°17' W 002°01'0 0.0
2018-Jan-12 00:00N 47°17' W 002°01'0 0.0
2018-Jan-11 23:27N 47°17' W 002°01'0 0.0
2018-Jan-11 22:57N 47°17' W 002°01'0 0.0
2018-Jan-11 22:30N 47°17' W 002°01'0 0.0
2018-Jan-11 22:00N 47°17' W 002°01'0 0.0
2018-Jan-11 21:30N 47°17' W 002°01'0 0.0
2018-Jan-11 21:00N 47°17' W 002°01'0 0.0
2018-Jan-11 20:30N 47°17' W 002°01'0 0.0
2018-Jan-11 19:57N 47°17' W 002°01'0 0.0
2018-Jan-11 17:59N 47°17' W 002°01'0 0.0
2018-Jan-11 17:27N 47°17' W 002°01'0 0.0
2018-Jan-11 17:00N 47°17' W 002°01'2 4.6
2018-Jan-11 16:30N 47°18' W 002°04'2 3.4
2018-Jan-11 16:00N 47°18' W 002°07'0 0.3
2018-Jan-11 15:29N 47°18' W 002°07'0 0.2
2018-Jan-11 14:56N 47°18' W 002°07'0 0.1
2018-Jan-11 13:53N 47°18' W 002°07'0 0.1
2018-Jan-11 13:17N 47°18' W 002°07'0 0.1
2018-Jan-11 12:50N 47°18' W 002°07'0 0.3
2018-Jan-11 12:29N 47°18' W 002°07'0 0.6
2018-Jan-11 11:57N 47°18' W 002°06'0 0.8
2018-Jan-11 11:20N 47°18' W 002°06'0 0.0
2018-Jan-11 10:56N 47°18' W 002°06'2 3.8
2018-Jan-11 10:18N 47°18' W 002°02'1 0.4
2018-Jan-11 08:01N 47°17' W 002°01'0 0.1
2018-Jan-11 07:54N 47°17' W 002°01'0 0.0
2018-Jan-11 07:30N 47°17' W 002°01'0 0.0
2018-Jan-11 06:57N 47°17' W 002°01'0 0.0
2018-Jan-11 06:30N 47°17' W 002°01'0 0.0
2018-Jan-11 04:51N 47°17' W 002°01'0 0.0
2018-Jan-11 04:30N 47°17' W 002°01'0 0.0
2018-Jan-11 03:55N 47°17' W 002°01'0 0.0
2018-Jan-11 03:21N 47°17' W 002°01'0 0.0
2018-Jan-11 02:51N 47°17' W 002°01'0 0.0
2018-Jan-11 02:27N 47°17' W 002°01'0 0.0
2018-Jan-11 02:00N 47°17' W 002°01'0 0.0
2018-Jan-11 01:30N 47°17' W 002°01'0 0.0
2018-Jan-11 00:54N 47°17' W 002°01'0 0.0
2018-Jan-11 00:30N 47°17' W 002°01'0 0.0
2018-Jan-10 23:54N 47°17' W 002°01'0 0.0
2018-Jan-10 23:30N 47°17' W 002°01'0 0.0
2018-Jan-10 22:42N 47°17' W 002°01'0 0.0
2018-Jan-10 22:27N 47°17' W 002°01'0 0.0
2018-Jan-10 21:54N 47°17' W 002°01'0 0.0
2018-Jan-10 21:30N 47°17' W 002°01'0 0.0
2018-Jan-10 21:00N 47°17' W 002°01'0 0.0
2018-Jan-10 20:24N 47°17' W 002°01'0 0.0
2018-Jan-10 20:00N 47°17' W 002°01'0 0.0
2018-Jan-10 19:30N 47°17' W 002°01'0 0.0
2018-Jan-10 19:00N 47°17' W 002°01'0 0.0
2018-Jan-10 18:30N 47°17' W 002°01'0 0.0
2018-Jan-10 18:00N 47°17' W 002°01'0 0.0
2018-Jan-10 17:30N 47°17' W 002°01'0 0.0
2018-Jan-10 17:00N 47°17' W 002°01'0 0.0
2018-Jan-10 16:27N 47°17' W 002°01'0 0.0
2018-Jan-10 16:00N 47°17' W 002°01'0 0.0
2018-Jan-10 15:30N 47°17' W 002°01'2 3.1
2018-Jan-10 15:00N 47°17' W 001°59'3 5.4
2018-Jan-10 14:30N 47°17' W 001°55'2 4.7
2018-Jan-10 14:00N 47°16' W 001°52'2 4.6
2018-Jan-10 13:30N 47°14' W 001°50'2 4.6
2018-Jan-10 13:00N 47°13' W 001°47'1 2.0
2018-Jan-10 12:28N 47°12' W 001°46'0 0.1
2018-Jan-10 11:58N 47°12' W 001°46'0 0.0
2018-Jan-10 11:28N 47°12' W 001°46'0 0.0
2018-Jan-10 10:58N 47°12' W 001°46'0 0.0
2018-Jan-10 10:25N 47°12' W 001°46'0 0.0
2018-Jan-10 09:58N 47°12' W 001°46'0 0.0
2018-Jan-10 09:28N 47°12' W 001°46'0 0.0
2018-Jan-10 08:58N 47°12' W 001°46'0 0.0
2018-Jan-10 08:28N 47°12' W 001°46'0 0.0
2018-Jan-10 07:55N 47°12' W 001°46'0 0.0
2018-Jan-10 07:28N 47°12' W 001°46'0 0.0
2018-Jan-10 06:55N 47°12' W 001°46'0 0.0
2018-Jan-10 06:28N 47°12' W 001°46'0 0.0
2018-Jan-10 05:58N 47°12' W 001°46'0 0.0
2018-Jan-10 05:25N 47°12' W 001°46'0 0.0
2018-Jan-10 04:58N 47°12' W 001°46'0 0.0
2018-Jan-10 04:28N 47°12' W 001°46'0 0.0
2018-Jan-10 03:58N 47°12' W 001°46'0 0.0
2018-Jan-10 03:28N 47°12' W 001°46'0 0.0
2018-Jan-10 02:55N 47°12' W 001°46'0 0.0
2018-Jan-10 02:28N 47°12' W 001°46'0 0.0
2018-Jan-10 01:58N 47°12' W 001°46'0 0.0
2018-Jan-10 01:28N 47°12' W 001°46'0 0.0
2018-Jan-10 00:55N 47°12' W 001°46'0 0.0
2018-Jan-10 00:25N 47°12' W 001°46'0 0.0
2018-Jan-09 23:58N 47°12' W 001°46'0 0.0
2018-Jan-09 23:25N 47°12' W 001°46'0 0.0
2018-Jan-09 22:58N 47°12' W 001°46'0 0.0
2018-Jan-09 22:28N 47°12' W 001°46'0 0.0
2018-Jan-09 21:58N 47°12' W 001°46'0 0.0
2018-Jan-09 21:28N 47°12' W 001°46'0 0.0
2018-Jan-09 20:55N 47°12' W 001°46'0 0.0
2018-Jan-09 20:04N 47°12' W 001°46'0 0.0
2018-Jan-09 19:55N 47°12' W 001°46'0 0.0
2018-Jan-09 19:22N 47°12' W 001°46'0 0.0
2018-Jan-09 18:58N 47°12' W 001°46'0 0.0
2018-Jan-09 18:28N 47°12' W 001°46'0 0.0
2018-Jan-09 17:55N 47°12' W 001°46'0 0.0
2018-Jan-09 17:25N 47°12' W 001°46'0 0.0
2018-Jan-09 16:58N 47°12' W 001°46'0 0.0
2018-Jan-09 16:28N 47°12' W 001°46'0 0.0
2018-Jan-09 15:58N 47°12' W 001°46'0 0.0
2018-Jan-09 15:28N 47°12' W 001°46'  

Dump ship's entire track history